Search for airport 
image banner adimage banner adimage banner ad
image banner ad

94PA - Mountain Springs

Located in Coudersport, United States

ICAO - 94PA, IATA -

Data provided by Airmate  

General information

Coordinates: N41°46'12" W78°0'39"
Elevation is 1810 feet MSL.
Magnetic variation is -10° East
View others Airports in Pennsylvania

Operational data

Special qualification required
Current time UTC:
Current local time:
METAR: KELZ 071356Z AUTO 00000KT 10SM BKN047 OVC055 06/01 A2990 RMK AO2 SLP136 T00560006
View NOTAMs / SUP AIP / TFR affecting this airport [VIEW]
Communications frequencies: [VIEW]

Runways:

Airport contact information

Address: Coudersport United States

Satellite view of 94PA